Loomis, Wisconsin
Current Conditions -  °F | °C
As of 8:35 PM on Friday 28 Nov 2014 (Local Time) from KMNM Reporting Station
Overcast Overcast  
Wind Chill: 21°   Ceiling: 4200
Heat Index: 21°   Visibility: 9mi
Dew Point: 18°   Wind: 0mph
Humidity: 86%   Direction: NA
Pressure: 29.92"   Gusts: NA
Location:  45.2013°N, 87.8321°W
Report Text: KMNM 290235Z AUTO 00000KT 9SM FEW027 BKN042 OVC050 M06/M08 A2992 RMK AO1
Loading
Personal Weather Stations






























Interactive Weather Map New forecast layout! Learn more

10-Day Weather Forecast

Advertisements
Track Severe Weather on mobile